createdAt,value
2023-04-15T00:04:58.730Z,3.58
2023-04-15T00:10:02.484Z,3.41
2023-04-15T00:15:07.018Z,3.60
2023-04-15T00:20:10.735Z,3.49
2023-04-15T00:25:13.904Z,3.51
2023-04-15T00:30:18.877Z,3.42
2023-04-15T00:35:22.120Z,3.20
2023-04-15T00:40:26.842Z,3.25
2023-04-15T00:45:30.527Z,3.15
2023-04-15T00:50:33.933Z,3.08
2023-04-15T00:55:38.362Z,3.22
2023-04-15T01:00:42.307Z,3.19
2023-04-15T01:05:46.392Z,3.22
2023-04-15T01:10:49.447Z,3.07
2023-04-15T01:15:53.308Z,2.99
2023-04-15T01:20:56.795Z,3.15
2023-04-15T01:26:02.928Z,3.13
2023-04-15T01:31:11.074Z,3.06
2023-04-15T01:36:14.676Z,2.94
2023-04-15T01:41:17.637Z,3.08
2023-04-15T01:46:22.377Z,3.16
2023-04-15T01:51:27.622Z,3.04
2023-04-15T01:56:31.844Z,3.13
2023-04-15T02:01:36.145Z,3.03
2023-04-15T02:06:40.588Z,3.19
2023-04-15T02:11:45.282Z,3.13
2023-04-15T02:16:49.549Z,2.93
2023-04-15T02:21:53.746Z,3.14
2023-04-15T02:26:57.943Z,3.04
2023-04-15T02:32:02.239Z,3.18
2023-04-15T02:37:07.085Z,3.26
2023-04-15T02:42:13.770Z,3.21
2023-04-15T02:47:18.066Z,3.17
2023-04-15T02:52:22.282Z,3.09
2023-04-15T02:57:32.407Z,2.91
2023-04-15T03:02:43.362Z,2.91
2023-04-15T03:07:47.913Z,3.05
2023-04-15T03:12:52.427Z,3.06
2023-04-15T03:17:58.960Z,3.22
2023-04-15T03:23:03.253Z,3.24
2023-04-15T03:28:07.592Z,3.35
2023-04-15T03:33:11.804Z,3.51
2023-04-15T03:38:16.701Z,3.56
2023-04-15T03:43:21.611Z,3.56
2023-04-15T03:48:25.851Z,3.57
2023-04-15T03:53:30.047Z,3.59
2023-04-15T03:58:34.218Z,3.49
2023-04-15T04:03:38.451Z,3.62
2023-04-15T04:08:42.939Z,3.63
2023-04-15T04:13:47.057Z,3.69
2023-04-15T04:18:51.300Z,3.57
2023-04-15T04:23:57.055Z,3.66
2023-04-15T04:29:01.531Z,3.59
2023-04-15T04:34:06.448Z,3.82
2023-04-15T04:39:10.614Z,3.95
2023-04-15T04:44:14.818Z,4.04
2023-04-15T04:49:19.037Z,4.16
2023-04-15T04:54:23.965Z,3.75
2023-04-15T04:59:28.589Z,4.15
2023-04-15T05:04:32.824Z,4.58
2023-04-15T05:09:37.175Z,4.35
2023-04-15T05:14:44.447Z,4.41
2023-04-15T05:19:48.784Z,4.48
2023-04-15T05:24:52.969Z,4.82
2023-04-15T05:29:57.289Z,4.93
2023-04-15T05:35:01.892Z,5.28
2023-04-15T05:40:06.649Z,5.07
2023-04-15T05:45:11.339Z,5.05
2023-04-15T05:50:16.046Z,5.83
2023-04-15T05:55:20.258Z,6.80
2023-04-15T06:00:24.430Z,6.27
2023-04-15T06:05:28.614Z,6.85
2023-04-15T06:10:36.871Z,6.32
2023-04-15T06:15:41.560Z,5.85
2023-04-15T06:20:46.186Z,5.95
2023-04-15T06:25:50.429Z,6.61
2023-04-15T06:30:55.271Z,6.33
2023-04-15T06:35:59.413Z,6.06
2023-04-15T06:41:04.672Z,6.21
2023-04-15T06:46:08.949Z,7.19
2023-04-15T06:51:13.277Z,6.63
2023-04-15T06:56:17.481Z,6.80
2023-04-15T07:01:21.731Z,7.16
2023-04-15T07:06:26.360Z,7.10
2023-04-15T07:11:30.828Z,7.45
2023-04-15T07:16:35.087Z,7.87
2023-04-15T07:21:41.687Z,7.51
2023-04-15T07:26:46.222Z,7.94
2023-04-15T07:31:50.403Z,7.59
2023-04-15T07:36:54.722Z,6.97
2023-04-15T07:41:59.423Z,7.65
2023-04-15T07:47:04.555Z,8.11
2023-04-15T07:52:08.884Z,7.75
2023-04-15T07:57:13.426Z,8.16
2023-04-15T08:02:17.746Z,7.86
2023-04-15T08:07:21.972Z,8.02
2023-04-15T08:12:26.204Z,7.75
2023-04-15T08:17:30.441Z,7.89
2023-04-15T08:22:34.871Z,7.57
2023-04-15T08:27:39.076Z,8.05
2023-04-15T08:32:49.577Z,7.86
2023-04-15T08:37:53.730Z,7.96
2023-04-15T08:42:59.465Z,8.26
2023-04-15T08:48:06.118Z,8.15
2023-04-15T08:53:12.071Z,8.47
2023-04-15T08:58:16.661Z,8.41
2023-04-15T09:03:23.249Z,8.23
2023-04-15T09:08:27.532Z,8.25
2023-04-15T09:13:32.060Z,8.55
2023-04-15T09:18:39.304Z,8.79
2023-04-15T09:24:01.555Z,8.32
2023-04-15T09:29:10.899Z,8.48
2023-04-15T09:34:15.097Z,8.45
2023-04-15T09:39:19.312Z,8.58
2023-04-15T09:44:24.738Z,8.26
2023-04-15T09:49:29.189Z,8.61
2023-04-15T09:54:35.413Z,8.55
2023-04-15T09:59:40.145Z,8.83
2023-04-15T10:04:45.862Z,8.61
2023-04-15T10:09:53.767Z,8.95
2023-04-15T10:15:05.134Z,8.93
2023-04-15T10:20:10.985Z,8.48
2023-04-15T10:25:16.071Z,8.74
2023-04-15T10:30:21.195Z,8.52
2023-04-15T10:35:25.840Z,8.91
2023-04-15T10:40:33.494Z,8.76
2023-04-15T10:45:38.422Z,8.57
2023-04-15T10:50:57.406Z,8.80
2023-04-15T10:56:01.741Z,9.19
2023-04-15T11:01:06.044Z,9.15
2023-04-15T11:06:10.320Z,8.85
2023-04-15T11:11:14.587Z,8.50
2023-04-15T11:16:19.032Z,8.64
2023-04-15T11:21:26.629Z,8.82
2023-04-15T11:26:33.652Z,9.10
2023-04-15T11:31:38.006Z,8.81
2023-04-15T11:36:43.978Z,8.77
2023-04-15T11:41:48.163Z,8.88
2023-04-15T11:46:52.342Z,8.95
2023-04-15T11:51:56.699Z,8.78
2023-04-15T11:57:00.505Z,8.85
2023-04-15T12:02:13.235Z,9.15
2023-04-15T12:07:16.949Z,9.09
2023-04-15T12:12:19.973Z,8.87
2023-04-15T12:17:24.547Z,8.94
2023-04-15T12:22:27.598Z,9.03
2023-04-15T12:27:32.716Z,8.79
2023-04-15T12:32:36.816Z,8.96
2023-04-15T12:37:39.907Z,8.97
2023-04-15T12:42:42.845Z,9.10
2023-04-15T12:47:45.797Z,8.96
2023-04-15T12:52:48.781Z,8.72
2023-04-15T12:57:51.849Z,8.75
2023-04-15T13:02:55.051Z,8.66
2023-04-15T13:07:58.066Z,8.65
2023-04-15T13:13:01.076Z,8.83
2023-04-15T13:18:06.803Z,8.50
2023-04-15T13:23:10.168Z,8.47
2023-04-15T13:28:13.113Z,8.50
2023-04-15T13:33:17.969Z,8.44
2023-04-15T13:38:21.061Z,8.44
2023-04-15T13:43:24.050Z,8.41
2023-04-15T13:48:26.962Z,8.38
2023-04-15T13:53:38.513Z,8.23
2023-04-15T13:58:42.766Z,8.32
2023-04-15T14:03:46.021Z,8.43
2023-04-15T14:08:49.148Z,8.41
2023-04-15T14:13:52.122Z,8.33
2023-04-15T14:18:55.103Z,8.22
2023-04-15T14:23:58.166Z,8.14
2023-04-15T14:29:01.555Z,8.19
2023-04-15T14:34:04.567Z,8.23
2023-04-15T14:39:08.878Z,8.00
2023-04-15T14:44:12.176Z,7.98
2023-04-15T14:49:15.164Z,7.87
2023-04-15T14:54:18.517Z,7.66
2023-04-15T14:59:22.090Z,7.70
2023-04-15T15:04:25.200Z,7.63
2023-04-15T15:09:29.433Z,7.52
2023-04-15T15:14:32.354Z,7.42
2023-04-15T15:19:35.453Z,7.30
2023-04-15T15:24:38.516Z,7.37
2023-04-15T15:29:41.469Z,7.25
2023-04-15T15:34:44.458Z,7.02
2023-04-15T15:39:47.455Z,6.92
2023-04-15T15:44:50.572Z,6.81
2023-04-15T15:49:54.727Z,6.70
2023-04-15T15:54:57.705Z,6.61
2023-04-15T16:00:11.118Z,6.62
2023-04-15T16:05:16.161Z,6.52
2023-04-15T16:10:19.208Z,6.44
2023-04-15T16:15:26.764Z,6.38
2023-04-15T16:20:29.726Z,6.47
2023-04-15T16:25:32.561Z,6.38
2023-04-15T16:30:37.305Z,6.28
2023-04-15T16:35:40.263Z,6.07
2023-04-15T16:40:43.173Z,6.06
2023-04-15T16:45:51.552Z,6.03
2023-04-15T16:50:54.881Z,5.93
2023-04-15T16:55:57.900Z,5.85
2023-04-15T17:01:01.530Z,5.77
2023-04-15T17:06:04.756Z,5.63
2023-04-15T17:11:07.902Z,5.62
2023-04-15T17:16:11.269Z,5.42
2023-04-15T17:21:21.827Z,5.31
2023-04-15T17:26:32.822Z,5.13
2023-04-15T17:31:40.086Z,5.17
2023-04-15T17:37:03.124Z,5.07
2023-04-15T17:42:26.686Z,4.98
2023-04-15T17:47:49.757Z,4.72
2023-04-15T17:53:12.756Z,4.79
2023-04-15T17:58:35.634Z,4.62
2023-04-15T18:03:58.592Z,4.51
2023-04-15T18:09:22.102Z,4.56
2023-04-15T18:14:45.037Z,4.52
2023-04-15T18:20:08.279Z,4.42
2023-04-15T18:25:14.155Z,4.39
2023-04-15T18:30:17.501Z,4.26
2023-04-15T18:35:21.080Z,4.16
2023-04-15T18:40:24.114Z,4.05
2023-04-15T18:45:27.302Z,4.07
2023-04-15T18:50:30.447Z,3.90
2023-04-15T18:55:33.487Z,3.73
2023-04-15T19:00:40.915Z,3.75
2023-04-15T19:05:44.237Z,3.59
2023-04-15T19:10:47.354Z,3.51
2023-04-15T19:15:50.319Z,3.50
2023-04-15T19:20:56.218Z,3.37
2023-04-15T19:25:59.274Z,3.24
2023-04-15T19:31:02.303Z,3.22
2023-04-15T19:36:06.821Z,3.29
2023-04-15T19:41:11.267Z,3.21
2023-04-15T19:46:14.199Z,3.14
2023-04-15T19:51:17.243Z,3.02
2023-04-15T19:56:21.041Z,3.04
2023-04-15T20:01:24.172Z,2.87
2023-04-15T20:06:27.834Z,2.67
2023-04-15T20:12:47.010Z,2.77
2023-04-15T20:16:53.874Z,2.68
2023-04-15T20:21:56.805Z,2.41
2023-04-15T20:26:59.755Z,2.53
2023-04-15T20:32:02.845Z,2.34
2023-04-15T20:37:06.087Z,2.37
2023-04-15T20:42:12.109Z,2.21
2023-04-15T20:47:15.084Z,2.16
2023-04-15T20:52:18.221Z,2.24
2023-04-15T20:57:21.347Z,2.10
2023-04-15T21:02:24.772Z,2.01
2023-04-15T21:07:27.934Z,2.02
2023-04-15T21:12:31.342Z,2.01
2023-04-15T21:17:35.677Z,1.74
2023-04-15T21:22:38.631Z,1.91
2023-04-15T21:27:41.749Z,1.83
2023-04-15T21:32:44.771Z,1.84
2023-04-15T21:37:47.750Z,1.92
2023-04-15T21:42:50.904Z,1.72
2023-04-15T21:48:05.535Z,1.72
2023-04-15T21:53:10.694Z,1.61
2023-04-15T21:58:13.625Z,1.55
2023-04-15T22:03:16.702Z,1.48
2023-04-15T22:08:19.685Z,1.51
2023-04-15T22:13:22.627Z,1.57
2023-04-15T22:18:25.748Z,1.56
2023-04-15T22:23:28.672Z,1.36
2023-04-15T22:28:31.625Z,1.21
2023-04-15T22:33:34.803Z,1.39
2023-04-15T22:38:37.893Z,1.16
2023-04-15T22:43:40.776Z,1.16
2023-04-15T22:48:43.818Z,0.98
2023-04-15T22:53:46.751Z,1.05
2023-04-15T22:58:50.679Z,1.04
2023-04-15T23:03:56.930Z,1.12
2023-04-15T23:09:07.394Z,1.31
2023-04-15T23:14:10.657Z,1.23
2023-04-15T23:19:13.644Z,1.28
2023-04-15T23:24:17.136Z,1.28
2023-04-15T23:29:20.045Z,1.22
2023-04-15T23:34:23.095Z,1.03
2023-04-15T23:39:26.195Z,1.14
2023-04-15T23:44:29.121Z,0.95
2023-04-15T23:49:32.034Z,0.92
2023-04-15T23:54:35.162Z,0.99
2023-04-15T23:59:38.130Z,1.05
